sensor_id;sensor_type;location;lat;lon;timestamp;temperature;humidity
1391;DHT22;690;51.454;7.194;2022-10-04T00:01:24;13.30;99.90
1391;DHT22;690;51.454;7.194;2022-10-04T00:04:02;13.30;99.90
1391;DHT22;690;51.454;7.194;2022-10-04T00:06:31;13.30;99.90
1391;DHT22;690;51.454;7.194;2022-10-04T00:09:03;13.30;99.90
1391;DHT22;690;51.454;7.194;2022-10-04T00:11:33;13.30;99.90
1391;DHT22;690;51.454;7.194;2022-10-04T00:14:06;13.30;99.90
1391;DHT22;690;51.454;7.194;2022-10-04T00:16:35;13.30;99.90
1391;DHT22;690;51.454;7.194;2022-10-04T00:19:25;13.30;99.90
1391;DHT22;690;51.454;7.194;2022-10-04T00:22:20;13.40;99.90
1391;DHT22;690;51.454;7.194;2022-10-04T00:25:17;13.40;99.90
1391;DHT22;690;51.454;7.194;2022-10-04T00:28:13;13.40;99.90
1391;DHT22;690;51.454;7.194;2022-10-04T00:30:40;13.40;99.90
1391;DHT22;690;51.454;7.194;2022-10-04T00:33:07;13.40;99.90
1391;DHT22;690;51.454;7.194;2022-10-04T00:35:48;13.50;99.90
1391;DHT22;690;51.454;7.194;2022-10-04T00:38:17;13.50;99.90
1391;DHT22;690;51.454;7.194;2022-10-04T00:40:55;13.50;99.90
1391;DHT22;690;51.454;7.194;2022-10-04T00:43:28;13.50;99.90
1391;DHT22;690;51.454;7.194;2022-10-04T00:45:59;13.50;99.90
1391;DHT22;690;51.454;7.194;2022-10-04T00:48:32;13.50;99.90
1391;DHT22;690;51.454;7.194;2022-10-04T00:51:06;13.50;99.90
1391;DHT22;690;51.454;7.194;2022-10-04T00:53:47;13.50;99.90
1391;DHT22;690;51.454;7.194;2022-10-04T00:56:23;13.60;99.90
1391;DHT22;690;51.454;7.194;2022-10-04T00:59:28;13.60;99.90
1391;DHT22;690;51.454;7.194;2022-10-04T01:01:58;13.60;99.90
1391;DHT22;690;51.454;7.194;2022-10-04T01:04:38;13.60;99.90
1391;DHT22;690;51.454;7.194;2022-10-04T01:07:09;13.50;89.30
1391;DHT22;690;51.454;7.194;2022-10-04T01:09:44;13.60;62.20
1391;DHT22;690;51.454;7.194;2022-10-04T01:12:30;13.60;23.60
1391;DHT22;690;51.454;7.194;2022-10-04T01:15:03;13.60;4.90
1391;DHT22;690;51.454;7.194;2022-10-04T01:17:32;13.60;1.00
1391;DHT22;690;51.454;7.194;2022-10-04T01:19:59;13.60;1.00
1391;DHT22;690;51.454;7.194;2022-10-04T01:22:33;13.60;1.00
1391;DHT22;690;51.454;7.194;2022-10-04T01:25:02;13.60;1.00
1391;DHT22;690;51.454;7.194;2022-10-04T01:27:35;13.60;1.00
1391;DHT22;690;51.454;7.194;2022-10-04T01:30:05;13.60;1.00
1391;DHT22;690;51.454;7.194;2022-10-04T01:32:34;13.60;1.00
1391;DHT22;690;51.454;7.194;2022-10-04T01:35:03;13.60;1.00
1391;DHT22;690;51.454;7.194;2022-10-04T01:37:31;13.60;1.00
1391;DHT22;690;51.454;7.194;2022-10-04T01:39:58;13.60;1.00
1391;DHT22;690;51.454;7.194;2022-10-04T01:42:29;13.60;1.00
1391;DHT22;690;51.454;7.194;2022-10-04T01:45:01;13.60;1.00
1391;DHT22;690;51.454;7.194;2022-10-04T01:47:33;13.60;1.00
1391;DHT22;690;51.454;7.194;2022-10-04T01:50:04;13.60;1.00
1391;DHT22;690;51.454;7.194;2022-10-04T01:52:36;13.70;1.00
1391;DHT22;690;51.454;7.194;2022-10-04T01:55:08;13.70;1.00
1391;DHT22;690;51.454;7.194;2022-10-04T01:57:41;13.70;1.00
1391;DHT22;690;51.454;7.194;2022-10-04T02:00:12;13.70;1.00
1391;DHT22;690;51.454;7.194;2022-10-04T02:02:42;13.70;1.00
1391;DHT22;690;51.454;7.194;2022-10-04T02:05:12;13.60;1.00
1391;DHT22;690;51.454;7.194;2022-10-04T02:07:43;13.60;1.00
1391;DHT22;690;51.454;7.194;2022-10-04T02:10:16;13.60;1.00
1391;DHT22;690;51.454;7.194;2022-10-04T02:12:45;13.60;1.00
1391;DHT22;690;51.454;7.194;2022-10-04T02:15:13;13.60;1.00
1391;DHT22;690;51.454;7.194;2022-10-04T02:17:42;13.60;1.00
1391;DHT22;690;51.454;7.194;2022-10-04T02:20:14;13.60;1.00
1391;DHT22;690;51.454;7.194;2022-10-04T02:22:43;13.60;1.00
1391;DHT22;690;51.454;7.194;2022-10-04T02:25:12;13.50;1.00
1391;DHT22;690;51.454;7.194;2022-10-04T02:27:40;13.60;1.00
1391;DHT22;690;51.454;7.194;2022-10-04T02:30:08;13.50;1.00
1391;DHT22;690;51.454;7.194;2022-10-04T02:32:37;13.50;1.00
1391;DHT22;690;51.454;7.194;2022-10-04T02:35:23;13.50;1.00
1391;DHT22;690;51.454;7.194;2022-10-04T02:38:03;13.50;1.00
1391;DHT22;690;51.454;7.194;2022-10-04T02:40:36;13.40;1.00
1391;DHT22;690;51.454;7.194;2022-10-04T02:43:09;13.40;1.00
1391;DHT22;690;51.454;7.194;2022-10-04T02:45:44;13.40;1.00
1391;DHT22;690;51.454;7.194;2022-10-04T02:48:26;13.40;1.00
1391;DHT22;690;51.454;7.194;2022-10-04T02:50:56;13.40;1.00
1391;DHT22;690;51.454;7.194;2022-10-04T02:53:35;13.40;1.00
1391;DHT22;690;51.454;7.194;2022-10-04T02:56:06;13.40;1.00
1391;DHT22;690;51.454;7.194;2022-10-04T02:58:38;13.30;1.00
1391;DHT22;690;51.454;7.194;2022-10-04T03:01:05;13.40;1.00
1391;DHT22;690;51.454;7.194;2022-10-04T03:03:33;13.30;1.00
1391;DHT22;690;51.454;7.194;2022-10-04T03:06:05;13.30;1.00
1391;DHT22;690;51.454;7.194;2022-10-04T03:08:42;13.40;1.00
1391;DHT22;690;51.454;7.194;2022-10-04T03:11:11;13.30;1.00
1391;DHT22;690;51.454;7.194;2022-10-04T03:13:43;13.40;1.00
1391;DHT22;690;51.454;7.194;2022-10-04T03:16:10;13.30;1.00
1391;DHT22;690;51.454;7.194;2022-10-04T03:18:38;13.30;1.00
1391;DHT22;690;51.454;7.194;2022-10-04T03:21:07;13.30;1.00
1391;DHT22;690;51.454;7.194;2022-10-04T03:23:36;13.30;1.00
1391;DHT22;690;51.454;7.194;2022-10-04T03:26:23;13.30;1.00
1391;DHT22;690;51.454;7.194;2022-10-04T03:28:51;13.30;1.00
1391;DHT22;690;51.454;7.194;2022-10-04T03:31:18;13.30;1.00
1391;DHT22;690;51.454;7.194;2022-10-04T03:33:46;13.30;1.00
1391;DHT22;690;51.454;7.194;2022-10-04T03:36:15;13.30;1.00
1391;DHT22;690;51.454;7.194;2022-10-04T03:38:45;13.30;1.00
1391;DHT22;690;51.454;7.194;2022-10-04T03:41:14;13.30;1.00
1391;DHT22;690;51.454;7.194;2022-10-04T03:43:43;13.20;1.00
1391;DHT22;690;51.454;7.194;2022-10-04T03:46:11;13.20;1.00
1391;DHT22;690;51.454;7.194;2022-10-04T03:48:42;13.20;1.00
1391;DHT22;690;51.454;7.194;2022-10-04T03:51:14;13.10;1.00
1391;DHT22;690;51.454;7.194;2022-10-04T03:53:45;13.20;1.00
1391;DHT22;690;51.454;7.194;2022-10-04T03:56:16;13.10;1.00
1391;DHT22;690;51.454;7.194;2022-10-04T03:58:45;13.10;1.00
1391;DHT22;690;51.454;7.194;2022-10-04T04:01:31;13.10;1.00
1391;DHT22;690;51.454;7.194;2022-10-04T04:04:05;13.00;1.00
1391;DHT22;690;51.454;7.194;2022-10-04T04:06:40;13.00;1.00
1391;DHT22;690;51.454;7.194;2022-10-04T04:09:18;13.00;1.00
1391;DHT22;690;51.454;7.194;2022-10-04T04:11:48;12.90;1.00
1391;DHT22;690;51.454;7.194;2022-10-04T04:14:20;12.90;1.00
1391;DHT22;690;51.454;7.194;2022-10-04T04:16:48;12.90;1.00
1391;DHT22;690;51.454;7.194;2022-10-04T04:19:21;12.80;1.00
1391;DHT22;690;51.454;7.194;2022-10-04T04:21:50;12.80;1.00
1391;DHT22;690;51.454;7.194;2022-10-04T04:24:23;12.80;1.00
1391;DHT22;690;51.454;7.194;2022-10-04T04:26:56;12.80;1.00
1391;DHT22;690;51.454;7.194;2022-10-04T04:29:27;12.70;1.00
1391;DHT22;690;51.454;7.194;2022-10-04T04:31:59;12.70;1.00
1391;DHT22;690;51.454;7.194;2022-10-04T04:34:31;12.70;1.00
1391;DHT22;690;51.454;7.194;2022-10-04T04:36:59;12.70;1.00
1391;DHT22;690;51.454;7.194;2022-10-04T04:39:29;12.70;1.00
1391;DHT22;690;51.454;7.194;2022-10-04T04:42:13;12.70;1.00
1391;DHT22;690;51.454;7.194;2022-10-04T04:44:46;12.60;1.00
1391;DHT22;690;51.454;7.194;2022-10-04T04:47:25;12.60;1.00
1391;DHT22;690;51.454;7.194;2022-10-04T04:49:54;12.60;1.00
1391;DHT22;690;51.454;7.194;2022-10-04T04:52:26;12.60;1.00
1391;DHT22;690;51.454;7.194;2022-10-04T04:54:57;12.60;1.00
1391;DHT22;690;51.454;7.194;2022-10-04T04:57:24;12.60;1.00
1391;DHT22;690;51.454;7.194;2022-10-04T04:59:54;12.60;1.00
1391;DHT22;690;51.454;7.194;2022-10-04T05:02:32;12.60;3.40
1391;DHT22;690;51.454;7.194;2022-10-04T05:05:16;12.60;43.90
1391;DHT22;690;51.454;7.194;2022-10-04T05:07:43;12.60;99.90
1391;DHT22;690;51.454;7.194;2022-10-04T05:10:30;12.60;99.90
1391;DHT22;690;51.454;7.194;2022-10-04T05:12:58;12.60;99.90
1391;DHT22;690;51.454;7.194;2022-10-04T05:15:26;12.60;99.90
1391;DHT22;690;51.454;7.194;2022-10-04T05:17:54;12.70;99.90
1391;DHT22;690;51.454;7.194;2022-10-04T05:20:21;12.70;99.90
1391;DHT22;690;51.454;7.194;2022-10-04T05:22:48;12.70;99.90
1391;DHT22;690;51.454;7.194;2022-10-04T05:25:24;12.70;99.90
1391;DHT22;690;51.454;7.194;2022-10-04T05:27:53;12.70;99.90
1391;DHT22;690;51.454;7.194;2022-10-04T05:30:44;12.70;99.90
1391;DHT22;690;51.454;7.194;2022-10-04T05:33:19;12.70;99.90
1391;DHT22;690;51.454;7.194;2022-10-04T05:36:01;12.70;99.90
1391;DHT22;690;51.454;7.194;2022-10-04T05:38:39;12.70;99.90
1391;DHT22;690;51.454;7.194;2022-10-04T05:41:17;12.70;99.90
1391;DHT22;690;51.454;7.194;2022-10-04T05:43:48;12.70;99.90
1391;DHT22;690;51.454;7.194;2022-10-04T05:46:22;12.70;99.90
1391;DHT22;690;51.454;7.194;2022-10-04T05:48:53;12.70;99.90
1391;DHT22;690;51.454;7.194;2022-10-04T05:51:23;12.70;99.90
1391;DHT22;690;51.454;7.194;2022-10-04T05:53:51;12.70;99.90
1391;DHT22;690;51.454;7.194;2022-10-04T05:59:40;12.70;99.90
1391;DHT22;690;51.454;7.194;2022-10-04T06:02:19;12.70;99.90
1391;DHT22;690;51.454;7.194;2022-10-04T06:05:02;12.80;99.90
1391;DHT22;690;51.454;7.194;2022-10-04T06:07:38;12.80;99.90
1391;DHT22;690;51.454;7.194;2022-10-04T06:10:24;12.80;99.90
1391;DHT22;690;51.454;7.194;2022-10-04T06:12:58;12.80;99.90
1391;DHT22;690;51.454;7.194;2022-10-04T06:15:56;12.80;99.90
1391;DHT22;690;51.454;7.194;2022-10-04T06:18:50;12.90;99.90
1391;DHT22;690;51.454;7.194;2022-10-04T06:21:21;12.90;99.90
1391;DHT22;690;51.454;7.194;2022-10-04T06:23:56;12.90;99.90
1391;DHT22;690;51.454;7.194;2022-10-04T06:26:28;12.90;99.90
1391;DHT22;690;51.454;7.194;2022-10-04T06:28:57;12.90;99.90
1391;DHT22;690;51.454;7.194;2022-10-04T06:32:06;12.90;99.90
1391;DHT22;690;51.454;7.194;2022-10-04T06:35:13;13.00;99.90
1391;DHT22;690;51.454;7.194;2022-10-04T06:41:08;13.00;99.90
1391;DHT22;690;51.454;7.194;2022-10-04T06:43:54;13.10;99.90
1391;DHT22;690;51.454;7.194;2022-10-04T06:46:28;13.10;99.90
1391;DHT22;690;51.454;7.194;2022-10-04T06:49:26;13.20;99.90
1391;DHT22;690;51.454;7.194;2022-10-04T06:52:24;13.20;99.90
1391;DHT22;690;51.454;7.194;2022-10-04T06:55:11;13.30;99.90
1391;DHT22;690;51.454;7.194;2022-10-04T06:58:11;13.30;99.90
1391;DHT22;690;51.454;7.194;2022-10-04T07:00:50;13.30;99.90
1391;DHT22;690;51.454;7.194;2022-10-04T07:03:21;13.40;99.90
1391;DHT22;690;51.454;7.194;2022-10-04T07:05:54;13.40;99.90
1391;DHT22;690;51.454;7.194;2022-10-04T07:08:25;13.50;99.90
1391;DHT22;690;51.454;7.194;2022-10-04T07:11:01;13.60;99.90
1391;DHT22;690;51.454;7.194;2022-10-04T07:13:40;13.60;99.90
1391;DHT22;690;51.454;7.194;2022-10-04T07:16:26;13.70;99.90
1391;DHT22;690;51.454;7.194;2022-10-04T07:19:00;13.70;99.90
1391;DHT22;690;51.454;7.194;2022-10-04T07:21:37;13.80;99.90
1391;DHT22;690;51.454;7.194;2022-10-04T07:24:10;13.90;84.00
1391;DHT22;690;51.454;7.194;2022-10-04T07:26:45;13.90;30.20
1391;DHT22;690;51.454;7.194;2022-10-04T07:29:16;14.00;1.00
1391;DHT22;690;51.454;7.194;2022-10-04T07:31:50;14.00;1.00
1391;DHT22;690;51.454;7.194;2022-10-04T07:34:23;14.10;1.00
1391;DHT22;690;51.454;7.194;2022-10-04T07:36:56;14.20;1.00
1391;DHT22;690;51.454;7.194;2022-10-04T07:39:28;14.30;1.00
1391;DHT22;690;51.454;7.194;2022-10-04T07:41:59;14.30;1.00
1391;DHT22;690;51.454;7.194;2022-10-04T07:44:34;14.40;1.00
1391;DHT22;690;51.454;7.194;2022-10-04T07:47:08;14.40;1.00
1391;DHT22;690;51.454;7.194;2022-10-04T07:49:40;14.50;1.00
1391;DHT22;690;51.454;7.194;2022-10-04T07:52:27;14.50;1.00
1391;DHT22;690;51.454;7.194;2022-10-04T07:55:05;14.60;1.00
1391;DHT22;690;51.454;7.194;2022-10-04T07:57:41;14.70;1.00
1391;DHT22;690;51.454;7.194;2022-10-04T08:00:16;14.70;99.90
1391;DHT22;690;51.454;7.194;2022-10-04T08:02:57;14.80;99.90
1391;DHT22;690;51.454;7.194;2022-10-04T08:05:37;14.80;99.90
1391;DHT22;690;51.454;7.194;2022-10-04T08:08:28;14.90;99.90
1391;DHT22;690;51.454;7.194;2022-10-04T08:11:10;14.90;99.90
1391;DHT22;690;51.454;7.194;2022-10-04T08:13:47;14.90;99.90
1391;DHT22;690;51.454;7.194;2022-10-04T08:16:27;15.00;99.90
1391;DHT22;690;51.454;7.194;2022-10-04T08:21:51;15.10;99.90
1391;DHT22;690;51.454;7.194;2022-10-04T08:24:27;15.10;99.90
1391;DHT22;690;51.454;7.194;2022-10-04T08:27:26;15.10;99.90
1391;DHT22;690;51.454;7.194;2022-10-04T08:30:10;15.10;99.90
1391;DHT22;690;51.454;7.194;2022-10-04T08:33:03;15.20;99.90
1391;DHT22;690;51.454;7.194;2022-10-04T08:35:36;15.30;99.90
1391;DHT22;690;51.454;7.194;2022-10-04T08:38:41;15.30;99.90
1391;DHT22;690;51.454;7.194;2022-10-04T08:41:33;15.40;99.90
1391;DHT22;690;51.454;7.194;2022-10-04T08:47:46;15.50;90.20
1391;DHT22;690;51.454;7.194;2022-10-04T08:53:32;15.70;39.60
1391;DHT22;690;51.454;7.194;2022-10-04T08:56:10;15.70;22.10
1391;DHT22;690;51.454;7.194;2022-10-04T09:01:51;15.90;1.00
1391;DHT22;690;51.454;7.194;2022-10-04T09:04:38;16.00;1.00
1391;DHT22;690;51.454;7.194;2022-10-04T09:07:33;16.00;1.00
1391;DHT22;690;51.454;7.194;2022-10-04T09:10:35;16.10;1.00
1391;DHT22;690;51.454;7.194;2022-10-04T09:13:36;16.20;1.00
1391;DHT22;690;51.454;7.194;2022-10-04T09:16:17;16.30;1.00
1391;DHT22;690;51.454;7.194;2022-10-04T09:19:00;16.30;1.00
1391;DHT22;690;51.454;7.194;2022-10-04T09:21:42;16.40;1.00
1391;DHT22;690;51.454;7.194;2022-10-04T09:24:59;16.50;1.00
1391;DHT22;690;51.454;7.194;2022-10-04T09:27:42;16.60;1.00
1391;DHT22;690;51.454;7.194;2022-10-04T09:30:16;16.70;1.00
1391;DHT22;690;51.454;7.194;2022-10-04T09:33:19;16.70;1.00
1391;DHT22;690;51.454;7.194;2022-10-04T09:36:11;16.80;1.00
1391;DHT22;690;51.454;7.194;2022-10-04T09:39:07;16.80;1.00
1391;DHT22;690;51.454;7.194;2022-10-04T09:41:49;16.90;1.00
1391;DHT22;690;51.454;7.194;2022-10-04T09:47:29;17.10;1.00
1391;DHT22;690;51.454;7.194;2022-10-04T09:53:18;17.30;1.00
1391;DHT22;690;51.454;7.194;2022-10-04T09:55:59;17.30;1.00
1391;DHT22;690;51.454;7.194;2022-10-04T09:58:49;17.40;1.00
1391;DHT22;690;51.454;7.194;2022-10-04T10:01:27;17.50;1.00
1391;DHT22;690;51.454;7.194;2022-10-04T10:07:22;17.60;1.00
1391;DHT22;690;51.454;7.194;2022-10-04T10:10:00;17.70;1.00
1391;DHT22;690;51.454;7.194;2022-10-04T10:13:05;17.70;1.00
1391;DHT22;690;51.454;7.194;2022-10-04T10:16:03;17.80;1.00
1391;DHT22;690;51.454;7.194;2022-10-04T10:18:45;17.90;1.00
1391;DHT22;690;51.454;7.194;2022-10-04T10:21:28;17.90;1.00
1391;DHT22;690;51.454;7.194;2022-10-04T10:24:31;18.00;1.00
1391;DHT22;690;51.454;7.194;2022-10-04T10:27:18;18.10;1.00
1391;DHT22;690;51.454;7.194;2022-10-04T10:30:07;18.20;1.00
1391;DHT22;690;51.454;7.194;2022-10-04T10:35:49;18.30;1.00
1391;DHT22;690;51.454;7.194;2022-10-04T10:38:29;18.40;1.00
1391;DHT22;690;51.454;7.194;2022-10-04T10:41:23;18.40;1.00
1391;DHT22;690;51.454;7.194;2022-10-04T10:44:12;18.40;1.00
1391;DHT22;690;51.454;7.194;2022-10-04T10:47:02;18.60;1.00
1391;DHT22;690;51.454;7.194;2022-10-04T10:49:52;18.60;99.90
1391;DHT22;690;51.454;7.194;2022-10-04T10:55:34;18.70;99.90
1391;DHT22;690;51.454;7.194;2022-10-04T10:58:21;18.70;99.90
1391;DHT22;690;51.454;7.194;2022-10-04T11:01:13;18.80;99.90
1391;DHT22;690;51.454;7.194;2022-10-04T11:04:12;19.00;99.90
1391;DHT22;690;51.454;7.194;2022-10-04T11:07:15;19.00;99.90
1391;DHT22;690;51.454;7.194;2022-10-04T11:10:03;19.00;99.90
1391;DHT22;690;51.454;7.194;2022-10-04T11:13:10;19.00;99.90
1391;DHT22;690;51.454;7.194;2022-10-04T11:16:09;19.10;99.90
1391;DHT22;690;51.454;7.194;2022-10-04T11:22:27;19.20;99.90
1391;DHT22;690;51.454;7.194;2022-10-04T11:28:19;19.40;99.90
1391;DHT22;690;51.454;7.194;2022-10-04T11:34:24;19.60;99.90
1391;DHT22;690;51.454;7.194;2022-10-04T11:37:04;19.60;99.90
1391;DHT22;690;51.454;7.194;2022-10-04T11:39:53;19.60;99.90
1391;DHT22;690;51.454;7.194;2022-10-04T11:42:42;19.70;99.90
1391;DHT22;690;51.454;7.194;2022-10-04T11:48:14;19.90;99.90
1391;DHT22;690;51.454;7.194;2022-10-04T11:51:17;20.00;99.90
1391;DHT22;690;51.454;7.194;2022-10-04T11:54:25;20.10;99.90
1391;DHT22;690;51.454;7.194;2022-10-04T11:57:19;20.20;99.90
1391;DHT22;690;51.454;7.194;2022-10-04T11:59:58;20.20;99.90
1391;DHT22;690;51.454;7.194;2022-10-04T12:02:58;20.30;99.90
1391;DHT22;690;51.454;7.194;2022-10-04T12:05:44;20.40;99.90
1391;DHT22;690;51.454;7.194;2022-10-04T12:08:22;20.50;99.90
1391;DHT22;690;51.454;7.194;2022-10-04T12:14:25;20.60;99.90
1391;DHT22;690;51.454;7.194;2022-10-04T12:17:23;20.60;99.90
1391;DHT22;690;51.454;7.194;2022-10-04T12:20:02;20.60;99.90
1391;DHT22;690;51.454;7.194;2022-10-04T12:22:59;20.70;99.90
1391;DHT22;690;51.454;7.194;2022-10-04T12:25:51;20.70;99.90
1391;DHT22;690;51.454;7.194;2022-10-04T12:28:36;20.70;99.90
1391;DHT22;690;51.454;7.194;2022-10-04T12:31:18;20.80;99.90
1391;DHT22;690;51.454;7.194;2022-10-04T12:33:54;20.80;99.90
1391;DHT22;690;51.454;7.194;2022-10-04T12:36:47;20.90;99.90
1391;DHT22;690;51.454;7.194;2022-10-04T12:39:25;21.10;99.90
1391;DHT22;690;51.454;7.194;2022-10-04T12:42:08;21.20;99.90
1391;DHT22;690;51.454;7.194;2022-10-04T12:44:49;21.30;99.90
1391;DHT22;690;51.454;7.194;2022-10-04T12:47:55;21.30;99.90
1391;DHT22;690;51.454;7.194;2022-10-04T12:50:40;21.40;99.90
1391;DHT22;690;51.454;7.194;2022-10-04T12:53:17;21.40;99.90
1391;DHT22;690;51.454;7.194;2022-10-04T12:56:04;21.60;99.90
1391;DHT22;690;51.454;7.194;2022-10-04T12:58:44;21.70;99.90
1391;DHT22;690;51.454;7.194;2022-10-04T13:01:22;21.80;99.90
1391;DHT22;690;51.454;7.194;2022-10-04T13:04:18;21.80;99.90
1391;DHT22;690;51.454;7.194;2022-10-04T13:07:09;21.90;99.90
1391;DHT22;690;51.454;7.194;2022-10-04T13:09:50;21.90;99.90
1391;DHT22;690;51.454;7.194;2022-10-04T13:12:29;21.90;99.90
1391;DHT22;690;51.454;7.194;2022-10-04T13:15:21;21.80;99.90
1391;DHT22;690;51.454;7.194;2022-10-04T13:17:54;21.80;99.90
1391;DHT22;690;51.454;7.194;2022-10-04T13:20:38;21.80;99.90
1391;DHT22;690;51.454;7.194;2022-10-04T13:23:16;21.80;99.90
1391;DHT22;690;51.454;7.194;2022-10-04T13:28:53;21.90;99.90
1391;DHT22;690;51.454;7.194;2022-10-04T13:31:31;22.00;99.90
1391;DHT22;690;51.454;7.194;2022-10-04T13:34:09;22.10;99.90
1391;DHT22;690;51.454;7.194;2022-10-04T13:42:47;22.10;99.90
1391;DHT22;690;51.454;7.194;2022-10-04T13:45:25;22.00;99.90
1391;DHT22;690;51.454;7.194;2022-10-04T13:48:32;21.90;99.90
1391;DHT22;690;51.454;7.194;2022-10-04T13:51:20;22.00;99.90
1391;DHT22;690;51.454;7.194;2022-10-04T13:53:56;22.00;99.90
1391;DHT22;690;51.454;7.194;2022-10-04T13:57:00;22.10;99.90
1391;DHT22;690;51.454;7.194;2022-10-04T13:59:36;22.10;99.90
1391;DHT22;690;51.454;7.194;2022-10-04T14:05:40;22.30;99.90
1391;DHT22;690;51.454;7.194;2022-10-04T14:08:42;22.40;99.90
1391;DHT22;690;51.454;7.194;2022-10-04T14:14:31;22.50;99.90
1391;DHT22;690;51.454;7.194;2022-10-04T14:17:30;22.60;99.90
1391;DHT22;690;51.454;7.194;2022-10-04T14:20:26;22.70;99.90
1391;DHT22;690;51.454;7.194;2022-10-04T14:23:16;22.70;99.90
1391;DHT22;690;51.454;7.194;2022-10-04T14:32:24;22.70;99.90
1391;DHT22;690;51.454;7.194;2022-10-04T14:34:59;22.60;99.90
1391;DHT22;690;51.454;7.194;2022-10-04T14:41:03;22.60;99.90
1391;DHT22;690;51.454;7.194;2022-10-04T14:44:14;22.70;99.90
1391;DHT22;690;51.454;7.194;2022-10-04T14:46:56;22.70;99.90
1391;DHT22;690;51.454;7.194;2022-10-04T14:49:40;22.80;99.90
1391;DHT22;690;51.454;7.194;2022-10-04T14:52:31;22.80;99.90
1391;DHT22;690;51.454;7.194;2022-10-04T14:55:13;22.80;99.90
1391;DHT22;690;51.454;7.194;2022-10-04T14:57:57;22.80;99.90
1391;DHT22;690;51.454;7.194;2022-10-04T15:00:32;22.80;99.90
1391;DHT22;690;51.454;7.194;2022-10-04T15:03:18;22.80;99.90
1391;DHT22;690;51.454;7.194;2022-10-04T15:06:18;22.80;99.90
1391;DHT22;690;51.454;7.194;2022-10-04T15:09:17;22.90;99.90
1391;DHT22;690;51.454;7.194;2022-10-04T15:11:51;22.90;99.90
1391;DHT22;690;51.454;7.194;2022-10-04T15:14:35;22.90;99.90
1391;DHT22;690;51.454;7.194;2022-10-04T15:17:08;22.90;99.90
1391;DHT22;690;51.454;7.194;2022-10-04T15:20:01;22.70;99.90
1391;DHT22;690;51.454;7.194;2022-10-04T15:22:38;22.70;99.90
1391;DHT22;690;51.454;7.194;2022-10-04T15:31:18;22.70;99.90
1391;DHT22;690;51.454;7.194;2022-10-04T15:33:57;22.60;99.90
1391;DHT22;690;51.454;7.194;2022-10-04T15:36:45;22.60;99.90
1391;DHT22;690;51.454;7.194;2022-10-04T15:39:34;22.50;99.90
1391;DHT22;690;51.454;7.194;2022-10-04T15:42:11;22.50;99.90
1391;DHT22;690;51.454;7.194;2022-10-04T15:45:16;22.40;99.90
1391;DHT22;690;51.454;7.194;2022-10-04T15:47:55;22.20;99.90
1391;DHT22;690;51.454;7.194;2022-10-04T15:50:28;22.10;99.90
1391;DHT22;690;51.454;7.194;2022-10-04T15:53:14;22.00;99.90
1391;DHT22;690;51.454;7.194;2022-10-04T15:56:03;21.90;99.90
1391;DHT22;690;51.454;7.194;2022-10-04T15:58:52;21.80;99.90
1391;DHT22;690;51.454;7.194;2022-10-04T16:01:46;21.70;99.90
1391;DHT22;690;51.454;7.194;2022-10-04T16:04:23;21.60;99.90
1391;DHT22;690;51.454;7.194;2022-10-04T16:07:00;21.50;99.90
1391;DHT22;690;51.454;7.194;2022-10-04T16:09:39;21.50;99.90
1391;DHT22;690;51.454;7.194;2022-10-04T16:12:19;21.40;99.90
1391;DHT22;690;51.454;7.194;2022-10-04T16:14:56;21.40;99.90
1391;DHT22;690;51.454;7.194;2022-10-04T16:17:50;21.30;99.90
1391;DHT22;690;51.454;7.194;2022-10-04T16:23:27;21.20;99.90
1391;DHT22;690;51.454;7.194;2022-10-04T16:25:55;21.10;99.90
1391;DHT22;690;51.454;7.194;2022-10-04T16:34:25;20.80;99.90
1391;DHT22;690;51.454;7.194;2022-10-04T16:36:56;20.70;99.90
1391;DHT22;690;51.454;7.194;2022-10-04T16:39:34;20.60;99.90
1391;DHT22;690;51.454;7.194;2022-10-04T16:42:21;20.50;99.90
1391;DHT22;690;51.454;7.194;2022-10-04T16:44:52;20.40;99.90
1391;DHT22;690;51.454;7.194;2022-10-04T16:47:24;20.30;99.90
1391;DHT22;690;51.454;7.194;2022-10-04T16:49:55;20.20;99.90
1391;DHT22;690;51.454;7.194;2022-10-04T16:52:57;20.10;99.90
1391;DHT22;690;51.454;7.194;2022-10-04T16:55:48;20.00;99.90
1391;DHT22;690;51.454;7.194;2022-10-04T16:58:42;19.90;99.90
1391;DHT22;690;51.454;7.194;2022-10-04T17:04:58;19.60;99.90
1391;DHT22;690;51.454;7.194;2022-10-04T17:07:39;19.60;99.90
1391;DHT22;690;51.454;7.194;2022-10-04T17:10:30;19.50;99.90
1391;DHT22;690;51.454;7.194;2022-10-04T17:13:06;19.40;99.90
1391;DHT22;690;51.454;7.194;2022-10-04T17:15:46;19.30;99.90
1391;DHT22;690;51.454;7.194;2022-10-04T17:18:23;19.20;99.90
1391;DHT22;690;51.454;7.194;2022-10-04T17:20:58;19.10;99.90
1391;DHT22;690;51.454;7.194;2022-10-04T17:23:51;19.10;99.90
1391;DHT22;690;51.454;7.194;2022-10-04T17:26:37;19.00;99.90
1391;DHT22;690;51.454;7.194;2022-10-04T17:29:21;18.90;99.90
1391;DHT22;690;51.454;7.194;2022-10-04T17:31:55;18.90;99.90
1391;DHT22;690;51.454;7.194;2022-10-04T17:34:31;18.80;99.90
1391;DHT22;690;51.454;7.194;2022-10-04T17:37:13;18.70;99.90
1391;DHT22;690;51.454;7.194;2022-10-04T17:39:48;18.70;99.90
1391;DHT22;690;51.454;7.194;2022-10-04T17:42:25;18.60;99.90
1391;DHT22;690;51.454;7.194;2022-10-04T17:45:06;18.60;99.90
1391;DHT22;690;51.454;7.194;2022-10-04T17:47:43;18.50;99.90
1391;DHT22;690;51.454;7.194;2022-10-04T17:50:32;18.40;99.90
1391;DHT22;690;51.454;7.194;2022-10-04T17:53:26;18.30;99.90
1391;DHT22;690;51.454;7.194;2022-10-04T17:56:11;18.30;99.90
1391;DHT22;690;51.454;7.194;2022-10-04T17:58:43;18.20;99.90
1391;DHT22;690;51.454;7.194;2022-10-04T18:01:15;18.10;99.90
1391;DHT22;690;51.454;7.194;2022-10-04T18:03:46;18.10;99.90
1391;DHT22;690;51.454;7.194;2022-10-04T18:06:26;18.00;99.90
1391;DHT22;690;51.454;7.194;2022-10-04T18:08:57;18.00;99.90
1391;DHT22;690;51.454;7.194;2022-10-04T18:11:32;17.90;99.90
1391;DHT22;690;51.454;7.194;2022-10-04T18:14:03;17.90;99.90
1391;DHT22;690;51.454;7.194;2022-10-04T18:16:40;17.80;99.90
1391;DHT22;690;51.454;7.194;2022-10-04T18:19:32;17.80;99.90
1391;DHT22;690;51.454;7.194;2022-10-04T18:22:08;17.70;99.90
1391;DHT22;690;51.454;7.194;2022-10-04T18:24:38;17.60;99.90
1391;DHT22;690;51.454;7.194;2022-10-04T18:27:16;17.50;99.90
1391;DHT22;690;51.454;7.194;2022-10-04T18:29:55;17.40;99.90
1391;DHT22;690;51.454;7.194;2022-10-04T18:32:32;17.40;99.90
1391;DHT22;690;51.454;7.194;2022-10-04T18:35:01;17.30;99.90
1391;DHT22;690;51.454;7.194;2022-10-04T18:37:43;17.30;99.90
1391;DHT22;690;51.454;7.194;2022-10-04T18:40:16;17.20;99.90
1391;DHT22;690;51.454;7.194;2022-10-04T18:42:49;17.20;99.90
1391;DHT22;690;51.454;7.194;2022-10-04T18:45:21;17.10;99.90
1391;DHT22;690;51.454;7.194;2022-10-04T18:47:48;17.00;99.90
1391;DHT22;690;51.454;7.194;2022-10-04T18:50:30;17.00;99.90
1391;DHT22;690;51.454;7.194;2022-10-04T18:53:08;17.00;99.90
1391;DHT22;690;51.454;7.194;2022-10-04T18:55:49;16.90;99.90
1391;DHT22;690;51.454;7.194;2022-10-04T18:58:29;16.90;99.90
1391;DHT22;690;51.454;7.194;2022-10-04T19:01:35;16.90;1.00
1391;DHT22;690;51.454;7.194;2022-10-04T19:07:22;16.90;1.00
1391;DHT22;690;51.454;7.194;2022-10-04T19:10:24;16.90;1.00
1391;DHT22;690;51.454;7.194;2022-10-04T19:13:12;16.90;1.00
1391;DHT22;690;51.454;7.194;2022-10-04T19:16:08;16.80;1.00
1391;DHT22;690;51.454;7.194;2022-10-04T19:18:50;16.80;1.00
1391;DHT22;690;51.454;7.194;2022-10-04T19:21:27;16.80;1.00
1391;DHT22;690;51.454;7.194;2022-10-04T19:24:11;16.80;1.00
1391;DHT22;690;51.454;7.194;2022-10-04T19:26:47;16.80;1.00